Time;durP1;ratioP1;P1;durP2;ratioP2;P2;SDS_P1;SDS_P2;PMS_P1;PMS_P2;Temp;Humidity;BMP_temperature;BMP_pressure;BME280_temperature;BME280_humidity;BME280_pressure;Samples;Min_cycle;Max_cycle;Signal;HPM_P1;HPM_P2
2022/10/23 00:00:34;;;;;;;5.88;3.25;;;;;;;15.88;100.00;100901.31;5027521;28;20061;-65
2022/10/23 00:02:59;;;;;;;10.65;3.60;;;;;;;15.86;100.00;100899.00;5028151;28;20029;-65
2022/10/23 00:05:26;;;;;;;5.68;3.25;;;;;;;15.88;100.00;100896.66;5026827;28;20040;-65
2022/10/23 00:07:55;;;;;;;3.97;2.45;;;;;;;15.75;100.00;100890.03;5032635;28;20076;-65
2022/10/23 00:10:22;;;;;;;5.55;3.20;;;;;;;15.94;100.00;100886.19;5027571;28;20119;-65
2022/10/23 00:12:47;;;;;;;5.03;2.88;;;;;;;15.93;100.00;100882.69;5026100;28;20093;-66
2022/10/23 00:15:15;;;;;;;5.20;2.90;;;;;;;15.98;100.00;100884.28;5024127;28;20061;-65
2022/10/23 00:17:41;;;;;;;6.95;3.03;;;;;;;15.90;100.00;100885.41;5023673;28;20136;-65
2022/10/23 00:20:08;;;;;;;10.48;3.22;;;;;;;15.82;100.00;100889.28;5024002;28;20112;-65
2022/10/23 00:22:34;;;;;;;5.88;2.63;;;;;;;15.73;100.00;100892.38;5022691;28;21874;-65
2022/10/23 00:24:59;;;;;;;8.00;3.03;;;;;;;15.71;100.00;100897.41;5035769;28;20029;-65
2022/10/23 00:27:26;;;;;;;4.30;2.70;;;;;;;15.67;100.00;100904.75;5027177;28;20544;-65
2022/10/23 00:29:51;;;;;;;5.50;3.25;;;;;;;15.68;100.00;100900.88;5027590;28;20413;-65
2022/10/23 00:32:17;;;;;;;4.45;2.58;;;;;;;15.67;99.87;100898.53;5021487;28;20026;-65
2022/10/23 00:34:42;;;;;;;6.03;3.35;;;;;;;15.68;99.80;100900.09;5022080;28;20479;-65
2022/10/23 00:37:08;;;;;;;7.45;3.30;;;;;;;15.66;99.66;100891.56;5028248;28;20513;-65
2022/10/23 00:39:33;;;;;;;13.43;3.22;;;;;;;15.55;100.00;100896.94;5029635;28;20056;-65
2022/10/23 00:41:59;;;;;;;7.28;3.60;;;;;;;15.59;100.00;100895.03;5040329;28;20041;-66
2022/10/23 00:44:28;;;;;;;5.35;2.90;;;;;;;15.53;100.00;100893.84;5030814;28;20033;-65
2022/10/23 00:46:57;;;;;;;7.97;2.53;;;;;;;15.57;100.00;100893.84;5022963;28;20068;-65
2022/10/23 00:49:24;;;;;;;7.32;3.05;;;;;;;15.53;99.94;100891.13;5031425;28;20033;-65
2022/10/23 00:51:55;;;;;;;6.65;3.33;;;;;;;15.57;100.00;100888.41;5031584;28;20030;-66
2022/10/23 00:54:24;;;;;;;4.68;3.03;;;;;;;15.54;100.00;100886.47;5019248;28;20545;-65
2022/10/23 00:56:55;;;;;;;6.43;3.38;;;;;;;15.55;100.00;100880.66;5027379;28;20088;-65
2022/10/23 00:59:21;;;;;;;5.47;3.28;;;;;;;15.49;100.00;100887.59;5031722;28;20264;-65
2022/10/23 01:01:47;;;;;;;5.57;2.70;;;;;;;15.45;100.00;100888.78;5032182;28;20406;-65
2022/10/23 01:04:13;;;;;;;5.82;3.30;;;;;;;15.34;100.00;100885.97;5024828;28;20095;-65
2022/10/23 01:06:52;;;;;;;6.70;3.20;;;;;;;15.37;100.00;100891.41;5033798;28;20034;-65
2022/10/23 01:09:27;;;;;;;9.02;3.10;;;;;;;15.38;100.00;100884.84;5024112;28;20084;-65
2022/10/23 01:12:11;;;;;;;8.27;3.28;;;;;;;15.48;100.00;100888.00;5031280;28;20040;-65
2022/10/23 01:14:54;;;;;;;6.32;3.33;;;;;;;15.50;100.00;100891.09;5021434;28;20095;-65
2022/10/23 01:17:29;;;;;;;8.88;3.63;;;;;;;15.43;99.90;100882.94;5022233;28;20029;-65
2022/10/23 01:20:00;;;;;;;6.50;3.25;;;;;;;15.36;100.00;100879.00;5030238;28;20064;-65
2022/10/23 01:23:04;;;;;;;8.30;3.70;;;;;;;15.36;100.00;100883.66;5032569;28;20025;-65
2022/10/23 01:25:50;;;;;;;10.30;3.67;;;;;;;15.32;100.00;100889.06;5027984;28;20053;-65
2022/10/23 01:28:33;;;;;;;7.05;3.22;;;;;;;15.39;100.00;100888.31;5031479;28;20486;-65
2022/10/23 01:31:00;;;;;;;4.80;3.15;;;;;;;15.30;100.00;100882.44;5030461;28;20033;-65
2022/10/23 01:33:45;;;;;;;6.85;3.08;;;;;;;15.39;100.00;100886.38;5027056;28;20108;-65
2022/10/23 01:36:14;;;;;;;4.95;3.03;;;;;;;15.44;100.00;100882.56;5026179;28;20034;-65
2022/10/23 01:38:48;;;;;;;6.00;2.90;;;;;;;15.32;99.70;100886.34;5030585;28;20132;-65
2022/10/23 01:41:32;;;;;;;7.55;3.13;;;;;;;15.30;99.33;100885.16;5027115;28;20036;-65
2022/10/23 01:44:21;;;;;;;7.70;3.15;;;;;;;15.27;99.69;100885.94;5039247;28;20029;-65
2022/10/23 01:46:48;;;;;;;6.13;3.30;;;;;;;15.25;99.45;100890.97;5020363;28;20331;-65
2022/10/23 01:49:19;;;;;;;10.50;3.35;;;;;;;15.22;99.62;100889.78;5003642;28;20038;-65
2022/10/23 01:51:53;;;;;;;7.32;3.30;;;;;;;15.17;99.53;100886.66;5030239;28;20509;-65
2022/10/23 01:54:25;;;;;;;4.80;2.90;;;;;;;15.16;99.58;100876.94;5023142;28;20417;-65
2022/10/23 01:56:52;;;;;;;8.20;3.38;;;;;;;15.15;99.55;100878.13;5027917;28;20029;-65
2022/10/23 01:59:28;;;;;;;8.50;3.67;;;;;;;15.18;99.20;100885.50;5034933;28;20060;-65
2022/10/23 02:01:55;;;;;;;;;;;;;;;15.26;99.27;100878.94;5029820;28;20323;-65
2022/10/23 02:04:39;;;;;;;5.78;3.20;;;;;;;15.19;98.88;100879.69;5029385;28;19913;-65
2022/10/23 02:07:05;;;;;;;8.75;3.05;;;;;;;15.20;99.40;100872.31;5002717;28;20069;-65
2022/10/23 02:09:32;;;;;;;7.38;3.25;;;;;;;15.19;99.51;100874.25;5029955;28;20033;-65
2022/10/23 02:12:05;;;;;;;6.75;3.28;;;;;;;15.14;99.93;100873.84;5030003;28;20076;-65
2022/10/23 02:14:53;;;;;;;5.43;2.80;;;;;;;15.20;99.69;100875.03;5031422;28;20127;-65
2022/10/23 02:17:54;;;;;;;4.63;2.78;;;;;;;15.03;99.37;100870.28;5027857;28;20045;-65
2022/10/23 02:20:34;;;;;;;6.70;3.25;;;;;;;14.92;99.58;100866.75;5020802;28;20516;-65
2022/10/23 02:23:11;;;;;;;6.25;3.45;;;;;;;14.88;99.04;100858.59;5026472;28;20392;-65
2022/10/23 02:26:07;;;;;;;7.43;3.25;;;;;;;14.83;98.69;100853.50;5028878;28;20115;-65
2022/10/23 02:28:39;;;;;;;4.22;2.90;;;;;;;14.73;98.29;100848.03;5020098;28;20135;-65
2022/10/23 02:31:11;;;;;;;6.38;3.42;;;;;;;14.68;98.41;100854.59;5036790;28;20128;-65
2022/10/23 02:33:36;;;;;;;6.55;3.67;;;;;;;14.64;98.18;100859.19;5030233;28;20056;-65
2022/10/23 02:36:02;;;;;;;8.57;3.30;;;;;;;14.61;98.07;100851.84;5029569;28;20473;-65
2022/10/23 02:38:36;;;;;;;6.05;3.40;;;;;;;14.56;97.83;100857.59;5027693;28;20036;-65
2022/10/23 02:41:23;;;;;;;5.82;3.30;;;;;;;14.61;97.62;100851.06;5012195;28;20047;-65
2022/10/23 02:43:56;;;;;;;8.55;3.55;;;;;;;14.56;97.71;100851.38;5028808;28;20022;-65
2022/10/23 02:46:47;;;;;;;5.20;3.00;;;;;;;14.48;97.14;100851.34;5019985;28;20033;-65
2022/10/23 02:49:16;;;;;;;7.22;2.85;;;;;;;14.45;97.78;100857.53;5028253;28;20049;-65
2022/10/23 02:51:42;;;;;;;6.43;3.15;;;;;;;14.57;97.70;100853.75;5018955;28;20029;-65
2022/10/23 02:54:25;;;;;;;7.90;3.22;;;;;;;14.43;97.32;100861.75;5025249;28;20045;-65
2022/10/23 02:57:04;;;;;;;8.48;3.75;;;;;;;14.37;97.90;100855.13;5021171;28;20083;-65
2022/10/23 02:59:47;;;;;;;6.82;3.08;;;;;;;14.43;97.41;100859.84;5028032;28;20438;-65
2022/10/23 03:02:20;;;;;;;5.28;2.97;;;;;;;14.35;97.04;100857.44;5029117;28;20560;-65
2022/10/23 03:04:45;;;;;;;8.10;3.03;;;;;;;14.30;97.46;100852.38;5028363;28;20112;-65
2022/10/23 03:07:17;;;;;;;6.10;2.78;;;;;;;14.43;97.32;100856.34;5027620;28;20121;-65
2022/10/23 03:09:43;;;;;;;6.20;3.30;;;;;;;14.37;97.22;100858.63;5031371;28;20030;-65
2022/10/23 03:12:08;;;;;;;6.32;2.70;;;;;;;14.33;97.33;100851.59;5026698;28;20093;-65
2022/10/23 03:14:35;;;;;;;7.13;3.38;;;;;;;14.32;97.56;100850.81;5021463;28;20061;-65
2022/10/23 03:17:03;;;;;;;6.20;2.83;;;;;;;14.30;97.75;100842.28;5017257;28;20037;-65
2022/10/23 03:19:28;;;;;;;5.70;3.03;;;;;;;14.22;97.96;100846.09;5031177;28;20049;-65
2022/10/23 03:21:55;;;;;;;5.25;3.08;;;;;;;14.22;98.66;100848.78;5029151;28;20489;-65
2022/10/23 03:24:20;;;;;;;6.68;3.72;;;;;;;14.29;98.61;100842.66;5025012;28;20128;-65
2022/10/23 03:26:45;;;;;;;5.55;2.90;;;;;;;14.30;98.39;100845.00;5021577;28;20434;-65
2022/10/23 03:29:11;;;;;;;6.90;3.15;;;;;;;14.26;98.85;100846.09;5021100;28;20116;-65
2022/10/23 03:31:42;;;;;;;;;;;;;;;14.20;98.60;100850.31;5020717;28;20049;-65
2022/10/23 03:34:10;;;;;;;9.27;3.15;;;;;;;14.20;99.53;100850.31;5025910;28;19928;-65
2022/10/23 03:36:37;;;;;;;8.23;3.42;;;;;;;14.21;99.70;100852.63;5018520;28;20525;-65
2022/10/23 03:39:03;;;;;;;9.10;4.13;;;;;;;14.37;99.19;100847.78;5035409;28;20029;-65
2022/10/23 03:41:29;;;;;;;8.13;3.45;;;;;;;14.35;99.10;100846.59;5012299;28;20036;-65
2022/10/23 03:43:55;;;;;;;5.68;2.83;;;;;;;14.25;99.51;100847.25;5028134;28;20078;-65
2022/10/23 03:46:21;;;;;;;8.43;3.75;;;;;;;14.27;99.77;100850.34;5023137;28;20095;-65
2022/10/23 03:48:50;;;;;;;6.75;3.33;;;;;;;14.25;99.62;100852.66;5009759;28;20030;-65
2022/10/23 03:51:17;;;;;;;10.27;4.10;;;;;;;14.22;100.00;100837.16;5028193;28;20505;-65
2022/10/23 03:53:43;;;;;;;7.40;3.42;;;;;;;14.27;100.00;100845.75;5028084;28;20061;-65
2022/10/23 03:56:08;;;;;;;9.15;3.13;;;;;;;14.21;100.00;100841.00;5027954;28;20029;-65
2022/10/23 03:58:34;;;;;;;5.80;3.22;;;;;;;14.15;100.00;100853.38;5030386;28;20033;-65
2022/10/23 04:00:59;;;;;;;6.70;3.30;;;;;;;14.19;100.00;100848.72;5026884;28;20037;-65
2022/10/23 04:03:25;;;;;;;5.03;2.92;;;;;;;14.18;100.00;100856.09;5028031;28;20021;-65
2022/10/23 04:05:51;;;;;;;6.22;3.55;;;;;;;14.04;100.00;100850.56;5032331;28;20409;-65
2022/10/23 04:08:18;;;;;;;7.03;3.78;;;;;;;14.01;100.00;100848.59;5012314;28;20181;-65
2022/10/23 04:10:46;;;;;;;8.77;3.88;;;;;;;14.05;100.00;100843.22;5012487;28;20032;-65
2022/10/23 04:13:11;;;;;;;6.97;3.13;;;;;;;14.05;100.00;100843.97;5032346;28;20033;-65
2022/10/23 04:15:37;;;;;;;5.93;2.75;;;;;;;14.09;100.00;100847.50;5028628;28;20406;-65
2022/10/23 04:18:03;;;;;;;5.05;2.90;;;;;;;14.03;100.00;100848.97;5025384;28;20044;-66
2022/10/23 04:20:30;;;;;;;6.85;3.65;;;;;;;14.09;100.00;100833.94;5030083;28;20068;-65
2022/10/23 04:23:00;;;;;;;7.85;3.78;;;;;;;14.15;100.00;100843.28;5033381;28;20036;-66
2022/10/23 04:25:25;;;;;;;5.50;3.00;;;;;;;14.07;99.99;100843.63;5030690;28;20030;-66
2022/10/23 04:27:50;;;;;;;6.22;3.28;;;;;;;14.02;100.00;100839.31;5010880;28;20033;-66
2022/10/23 04:30:16;;;;;;;8.27;3.70;;;;;;;13.98;99.61;100832.28;5031418;28;20032;-65
2022/10/23 04:32:44;;;;;;;7.45;3.28;;;;;;;14.01;99.39;100829.66;5031344;28;20021;-64
2022/10/23 04:35:09;;;;;;;6.32;3.03;;;;;;;14.05;98.90;100816.88;5024999;28;20045;-66
2022/10/23 04:37:35;;;;;;;6.00;3.05;;;;;;;14.03;98.92;100834.69;5032817;28;20033;-65
2022/10/23 04:40:01;;;;;;;5.57;3.08;;;;;;;13.89;99.07;100829.13;5015281;28;20041;-64
2022/10/23 04:42:26;;;;;;;8.48;3.42;;;;;;;14.01;98.79;100820.72;5031767;28;20490;-66
2022/10/23 04:44:52;;;;;;;6.30;3.53;;;;;;;13.98;98.82;100814.13;5009460;28;20021;-65
2022/10/23 04:47:18;;;;;;;9.68;3.03;;;;;;;13.94;98.80;100807.13;5029026;28;20105;-66
2022/10/23 04:50:03;;;;;;;9.82;3.22;;;;;;;13.83;99.58;100801.63;5029546;28;20033;-65
2022/10/23 04:53:07;;;;;;;6.25;3.40;;;;;;;13.82;99.40;100813.59;5030159;28;20409;-65
2022/10/23 04:55:57;;;;;;;8.93;2.95;;;;;;;14.03;98.75;100810.31;5030735;28;20446;-65
2022/10/23 04:58:33;;;;;;;7.55;3.40;;;;;;;13.92;98.77;100806.72;5029208;28;20168;-65
2022/10/23 05:01:06;;;;;;;6.93;3.58;;;;;;;13.82;98.87;100808.16;5019531;28;20029;-65
2022/10/23 05:03:33;;;;;;;5.13;2.75;;;;;;;13.78;98.90;100818.19;5015896;28;20029;-65
2022/10/23 05:05:58;;;;;;;8.88;3.72;;;;;;;13.73;98.60;100817.75;5027358;28;20374;-65
2022/10/23 05:08:46;;;;;;;4.80;2.90;;;;;;;13.73;99.44;100818.53;5012902;28;20038;-65
2022/10/23 05:11:20;;;;;;;6.03;3.55;;;;;;;13.63;100.00;100821.91;5034582;28;20025;-66
2022/10/23 05:13:48;;;;;;;6.57;2.80;;;;;;;13.61;100.00;100815.31;5035161;28;20025;-65
2022/10/23 05:16:32;;;;;;;4.85;2.70;;;;;;;13.35;100.00;100813.47;5025575;28;20037;-65
2022/10/23 05:18:58;;;;;;;5.68;2.88;;;;;;;13.48;100.00;100806.66;5030508;28;20040;-65
2022/10/23 05:21:27;;;;;;;7.10;3.00;;;;;;;13.43;100.00;100807.00;5002010;28;20034;-65
2022/10/23 05:23:53;;;;;;;4.50;2.50;;;;;;;13.65;100.00;100808.78;5025025;28;20014;-65
2022/10/23 05:26:21;;;;;;;8.68;3.15;;;;;;;13.77;100.00;100807.72;5032709;28;20031;-65
2022/10/23 05:28:47;;;;;;;7.18;3.08;;;;;;;13.78;100.00;100798.47;5032537;28;20071;-66
2022/10/23 05:31:18;;;;;;;6.80;2.70;;;;;;;13.50;100.00;100801.66;5027858;28;20417;-65
2022/10/23 05:33:47;;;;;;;4.97;2.63;;;;;;;13.64;100.00;100798.31;5011834;28;20523;-64
2022/10/23 05:36:14;;;;;;;7.05;3.17;;;;;;;13.69;100.00;100806.88;5011030;28;20045;-65
2022/10/23 05:38:41;;;;;;;5.05;2.45;;;;;;;13.62;100.00;100798.69;5027380;28;20038;-65
2022/10/23 05:41:14;;;;;;;9.18;2.80;;;;;;;13.64;100.00;100801.81;5011787;28;20445;-65
2022/10/23 05:43:39;;;;;;;5.03;2.63;;;;;;;13.58;100.00;100800.59;5010067;28;20034;-64
2022/10/23 05:46:27;;;;;;;5.75;2.60;;;;;;;13.67;100.00;100800.28;5051496;28;20103;-65
2022/10/23 05:49:13;;;;;;;4.85;2.25;;;;;;;13.58;100.00;100803.28;5051656;28;20413;-65
2022/10/23 05:51:54;;;;;;;5.30;2.87;;;;;;;13.57;100.00;100801.72;5035882;28;20026;-66
2022/10/23 05:54:19;;;;;;;4.95;2.70;;;;;;;13.66;100.00;100790.63;5052310;28;20126;-65
2022/10/23 05:56:55;;;;;;;4.22;2.65;;;;;;;13.70;100.00;100800.34;5037502;28;20034;-65
2022/10/23 05:59:30;;;;;;;6.40;3.05;;;;;;;13.80;100.00;100809.72;5050681;28;20516;-64
2022/10/23 06:02:11;;;;;;;9.80;3.37;;;;;;;13.47;100.00;100811.28;5051175;28;20037;-65
2022/10/23 06:04:51;;;;;;;5.35;2.38;;;;;;;13.68;100.00;100818.88;5034956;28;20038;-65
2022/10/23 06:07:28;;;;;;;4.70;2.50;;;;;;;13.65;100.00;100824.22;5049965;28;20029;-64
2022/10/23 06:09:55;;;;;;;5.72;3.22;;;;;;;13.73;100.00;100818.53;5050704;28;20044;-64
2022/10/23 06:12:21;;;;;;;6.45;3.22;;;;;;;13.55;100.00;100812.13;5052236;28;20033;-65
2022/10/23 06:14:48;;;;;;;8.93;2.72;;;;;;;13.49;100.00;100813.66;5036871;28;20532;-65
2022/10/23 06:17:14;;;;;;;6.28;2.65;;;;;;;13.39;100.00;100817.75;5017959;28;20034;-65
2022/10/23 06:19:44;;;;;;;5.43;2.42;;;;;;;13.33;100.00;100816.56;4994817;28;20057;-64
2022/10/23 06:22:10;;;;;;;4.80;2.15;;;;;;;13.46;100.00;100817.06;5037550;28;20508;-65
2022/10/23 06:24:46;;;;;;;7.30;3.42;;;;;;;13.40;100.00;100823.97;5049124;28;20123;-65
2022/10/23 06:27:16;;;;;;;3.72;2.55;;;;;;;13.45;100.00;100826.34;5050156;28;20497;-65
2022/10/23 06:29:43;;;;;;;7.55;2.35;;;;;;;13.50;100.00;100821.38;5038801;28;20029;-65
2022/10/23 06:32:09;;;;;;;3.78;2.38;;;;;;;13.36;100.00;100820.44;5051705;28;20083;-65
2022/10/23 06:34:35;;;;;;;4.55;2.60;;;;;;;13.47;100.00;100813.25;5049206;28;20460;-64
2022/10/23 06:37:02;;;;;;;4.57;2.90;;;;;;;13.61;100.00;100820.72;5034019;28;20087;-64
2022/10/23 06:39:35;;;;;;;9.70;2.20;;;;;;;13.70;100.00;100816.56;5012286;28;20128;-65
2022/10/23 06:42:12;;;;;;;6.13;2.38;;;;;;;13.80;100.00;100818.59;5023924;28;20040;-64
2022/10/23 06:44:52;;;;;;;7.82;2.72;;;;;;;13.87;100.00;100810.56;5047601;28;20076;-64
2022/10/23 06:47:40;;;;;;;4.75;2.97;;;;;;;13.73;100.00;100815.81;5027741;28;20040;-64
2022/10/23 06:50:26;;;;;;;5.32;2.65;;;;;;;13.72;100.00;100814.28;5009453;28;20111;-64
2022/10/23 06:52:53;;;;;;;5.28;3.00;;;;;;;13.74;100.00;100814.69;5023788;28;20167;-64
2022/10/23 06:55:20;;;;;;;5.20;2.60;;;;;;;13.85;100.00;100812.84;5008523;28;20030;-65
2022/10/23 06:57:46;;;;;;;4.97;2.33;;;;;;;13.87;100.00;100809.75;5028378;28;20388;-65
2022/10/23 07:00:12;;;;;;;5.70;2.67;;;;;;;13.94;100.00;100807.13;5048718;28;20512;-64
2022/10/23 07:02:45;;;;;;;7.07;2.95;;;;;;;13.93;100.00;100805.56;5049687;28;20024;-65
2022/10/23 07:05:12;;;;;;;3.67;2.35;;;;;;;13.89;100.00;100808.25;5048890;28;20035;-65
2022/10/23 07:07:37;;;;;;;4.80;2.30;;;;;;;13.81;100.00;100806.63;5030448;28;20120;-65
2022/10/23 07:10:03;;;;;;;8.80;3.20;;;;;;;13.82;100.00;100802.00;5008966;28;20025;-64
2022/10/23 07:12:39;;;;;;;4.85;2.13;;;;;;;13.89;100.00;100802.84;5019628;28;20022;-65
2022/10/23 07:15:23;;;;;;;4.28;2.25;;;;;;;13.87;100.00;100802.44;5023274;28;20102;-65
2022/10/23 07:17:49;;;;;;;3.75;2.15;;;;;;;13.91;100.00;100800.53;5026618;28;20041;-64
2022/10/23 07:20:14;;;;;;;4.35;2.40;;;;;;;14.08;100.00;100794.50;5031169;28;20017;-65
2022/10/23 07:22:39;;;;;;;3.65;1.88;;;;;;;14.05;100.00;100800.63;5023243;28;20034;-65
2022/10/23 07:25:09;;;;;;;4.18;2.35;;;;;;;14.09;100.00;100800.69;5028525;28;20124;-65
2022/10/23 07:27:37;;;;;;;4.68;2.42;;;;;;;14.20;100.00;100806.97;5021649;28;20064;-65
2022/10/23 07:30:05;;;;;;;4.07;2.58;;;;;;;14.27;100.00;100799.69;5027354;28;20029;-65
2022/10/23 07:32:37;;;;;;;4.47;2.22;;;;;;;14.25;100.00;100809.31;5021088;28;20026;-64
2022/10/23 07:35:18;;;;;;;3.75;2.30;;;;;;;14.42;100.00;100820.31;5028851;28;20460;-65
2022/10/23 07:37:52;;;;;;;3.67;2.00;;;;;;;14.48;100.00;100811.84;5005712;28;20022;-65
2022/10/23 07:40:18;;;;;;;4.65;2.03;;;;;;;14.52;100.00;100818.84;5028654;28;20038;-65
2022/10/23 07:42:44;;;;;;;9.15;2.35;;;;;;;14.62;100.00;100822.78;5012488;28;20420;-65
2022/10/23 07:45:13;;;;;;;3.55;2.33;;;;;;;14.64;100.00;100817.75;5027082;28;20471;-65
2022/10/23 07:47:42;;;;;;;5.68;2.55;;;;;;;14.79;100.00;100820.19;5032714;28;20098;-65
2022/10/23 07:50:11;;;;;;;4.25;2.33;;;;;;;14.88;100.00;100820.63;5033455;28;20030;-65
2022/10/23 07:52:36;;;;;;;4.03;2.00;;;;;;;15.05;100.00;100821.88;5027428;28;20493;-64
2022/10/23 07:55:10;;;;;;;4.95;2.17;;;;;;;15.13;100.00;100826.19;5031336;28;20559;-65
2022/10/23 07:57:39;;;;;;;4.00;2.13;;;;;;;15.33;100.00;100828.19;5025904;28;20029;-65
2022/10/23 08:00:16;;;;;;;4.18;2.33;;;;;;;15.46;100.00;100836.03;5024711;28;20040;-66
2022/10/23 08:02:52;;;;;;;4.38;2.35;;;;;;;15.36;99.18;100829.38;5030121;28;20036;-65
2022/10/23 08:05:19;;;;;;;5.85;3.05;;;;;;;15.45;100.00;100816.25;5032242;28;20028;-65
2022/10/23 08:07:50;;;;;;;4.97;2.22;;;;;;;15.45;99.89;100827.09;5030682;28;20112;-65
2022/10/23 08:10:16;;;;;;;7.65;2.30;;;;;;;15.66;100.00;100818.25;5030950;28;20112;-65
2022/10/23 08:12:42;;;;;;;3.90;2.03;;;;;;;15.61;100.00;100810.47;5033011;28;20493;-65
2022/10/23 08:15:09;;;;;;;3.13;1.90;;;;;;;15.83;99.98;100814.78;5031036;28;20030;-65
2022/10/23 08:17:47;;;;;;;3.28;2.00;;;;;;;15.75;99.09;100810.50;5032361;28;20029;-64
2022/10/23 08:20:18;;;;;;;2.75;1.77;;;;;;;15.97;100.00;100807.41;5033695;28;20037;-66
2022/10/23 08:22:44;;;;;;;4.00;2.10;;;;;;;16.26;99.03;100797.31;5016350;28;20513;-65
2022/10/23 08:25:12;;;;;;;3.65;2.25;;;;;;;16.43;98.50;100798.50;5027339;28;20444;-65
2022/10/23 08:27:37;;;;;;;4.93;2.08;;;;;;;16.45;97.84;100798.88;5031849;28;20017;-65
2022/10/23 08:30:07;;;;;;;3.08;1.85;;;;;;;16.63;97.23;100802.34;5026585;28;20033;-65
2022/10/23 08:32:32;;;;;;;2.67;1.40;;;;;;;16.66;97.05;100798.88;5027648;28;20043;-65
2022/10/23 08:34:59;;;;;;;3.45;1.92;;;;;;;16.87;96.58;100796.88;5025345;28;20037;-66
2022/10/23 08:37:27;;;;;;;7.45;1.88;;;;;;;16.99;96.73;100792.94;5031405;28;20571;-65
2022/10/23 08:39:54;;;;;;;2.90;1.40;;;;;;;17.08;96.31;100796.78;5032480;28;20033;-66
2022/10/23 08:43:04;;;;;;;3.30;1.60;;;;;;;17.10;95.34;100790.97;5032163;28;21599;-65
2022/10/23 08:45:47;;;;;;;3.45;1.50;;;;;;;17.23;94.92;100797.50;5026218;28;20042;-65
2022/10/23 08:48:44;;;;;;;3.05;1.80;;;;;;;17.33;92.89;100793.97;5035487;28;20044;-65
2022/10/23 08:51:45;;;;;;;4.80;1.70;;;;;;;17.47;93.90;100801.28;5037521;28;20032;-65
2022/10/23 08:54:20;;;;;;;2.45;1.73;;;;;;;17.44;93.62;100793.91;5044186;28;20529;-65
2022/10/23 08:56:54;;;;;;;2.47;1.45;;;;;;;17.46;92.87;100792.31;5020842;28;20384;-65
2022/10/23 08:59:25;;;;;;;6.85;1.40;;;;;;;17.44;93.10;100797.41;5009026;28;20121;-65
2022/10/23 09:02:01;;;;;;;3.88;1.42;;;;;;;17.45;92.85;100785.34;5009899;28;20034;-65
2022/10/23 09:04:26;;;;;;;4.15;1.67;;;;;;;17.43;92.75;100790.41;5026009;28;20033;-65
2022/10/23 09:07:01;;;;;;;4.70;1.67;;;;;;;17.51;92.90;100786.50;5022700;28;20022;-65
2022/10/23 09:10:11;;;;;;;3.10;1.60;;;;;;;17.63;92.88;100794.22;5008934;28;20030;-65
2022/10/23 09:12:36;;;;;;;1.90;1.60;;;;;;;17.70;93.39;100796.91;5017116;28;20037;-65
2022/10/23 09:15:17;;;;;;;4.18;1.35;;;;;;;17.75;92.67;100782.84;5029745;28;20048;-66
2022/10/23 09:17:43;;;;;;;2.60;1.65;;;;;;;17.76;92.47;100784.41;5019737;28;20562;-64
2022/10/23 09:20:17;;;;;;;3.67;1.42;;;;;;;17.78;92.92;100768.44;5031669;28;20034;-65
2022/10/23 09:22:45;;;;;;;2.13;1.13;;;;;;;17.88;92.72;100778.47;5034156;28;20059;-66
2022/10/23 09:25:18;;;;;;;2.90;1.70;;;;;;;17.80;92.20;100779.69;5025384;28;20025;-65
2022/10/23 09:27:49;;;;;;;2.53;1.30;;;;;;;17.77;92.34;100779.69;5019998;28;20030;-66
2022/10/23 09:30:29;;;;;;;2.05;1.30;;;;;;;17.83;92.32;100786.28;5018774;28;20036;-66
2022/10/23 09:32:54;;;;;;;1.73;1.38;;;;;;;17.82;92.02;100774.63;5032066;28;20041;-66
2022/10/23 09:35:26;;;;;;;3.13;1.23;;;;;;;17.70;92.88;100769.66;5050298;28;20058;-66
2022/10/23 09:37:54;;;;;;;;;;;;;;;17.79;92.74;100769.97;5033288;28;20041;-65
2022/10/23 09:40:40;;;;;;;2.53;1.33;;;;;;;17.97;92.03;100770.63;5017510;28;19920;-65
2022/10/23 09:43:15;;;;;;;1.73;1.05;;;;;;;18.00;91.66;100779.94;5013318;28;20038;-65
2022/10/23 09:45:41;;;;;;;3.95;1.60;;;;;;;18.06;91.87;100775.59;5005095;28;20029;-65
2022/10/23 09:48:17;;;;;;;6.53;2.28;;;;;;;18.21;91.02;100778.97;5019792;28;20052;-66
2022/10/23 09:50:49;;;;;;;2.13;1.30;;;;;;;18.12;91.11;100775.97;5016304;28;20033;-65
2022/10/23 09:53:26;;;;;;;2.22;1.50;;;;;;;18.07;90.90;100774.44;5030096;28;20040;-66
2022/10/23 09:55:54;;;;;;;2.92;1.13;;;;;;;17.84;91.94;100764.09;5020354;28;20042;-65
2022/10/23 09:58:39;;;;;;;7.35;1.60;;;;;;;17.90;91.92;100770.66;5031125;28;20041;-64
2022/10/23 10:01:05;;;;;;;2.05;1.45;;;;;;;17.75;92.20;100773.91;5025889;28;20049;-66
2022/10/23 10:03:50;;;;;;;2.58;1.67;;;;;;;17.92;91.82;100779.19;5014803;28;20028;-66
2022/10/23 10:06:23;;;;;;;3.67;1.65;;;;;;;17.88;92.46;100775.75;5010598;28;20044;-65
2022/10/23 10:08:52;;;;;;;3.95;1.42;;;;;;;17.98;92.08;100771.41;5016860;28;20469;-65
2022/10/23 10:11:35;;;;;;;2.95;1.60;;;;;;;17.68;92.06;100768.50;5022184;28;20041;-65
2022/10/23 10:14:42;;;;;;;2.33;1.40;;;;;;;17.86;92.32;100771.88;5021919;28;20045;-66
2022/10/23 10:17:47;;;;;;;3.13;1.35;;;;;;;18.10;91.72;100772.84;4949637;29;20059;-65
2022/10/23 10:20:16;;;;;;;2.25;1.50;;;;;;;18.20;91.54;100761.06;5030079;28;20143;-65
2022/10/23 10:22:50;;;;;;;2.75;1.40;;;;;;;18.16;91.32;100752.91;5034304;28;20037;-65
2022/10/23 10:25:28;;;;;;;2.35;1.35;;;;;;;18.30;91.42;100754.75;5034882;28;20774;-66
2022/10/23 10:28:24;;;;;;;2.22;1.27;;;;;;;18.35;90.99;100751.59;5030176;28;20126;-66
2022/10/23 10:31:20;;;;;;;3.58;1.98;;;;;;;18.37;89.92;100743.78;5037709;28;20393;-65
2022/10/23 10:34:06;;;;;;;1.45;1.02;;;;;;;18.41;89.53;100737.09;5028169;28;20052;-66
2022/10/23 10:36:39;;;;;;;2.92;1.20;;;;;;;18.22;90.67;100737.69;5025166;28;20120;-65
2022/10/23 10:39:15;;;;;;;2.22;1.08;;;;;;;18.34;90.76;100737.19;5026511;28;20033;-66
2022/10/23 10:41:48;;;;;;;1.38;0.88;;;;;;;18.43;90.60;100726.59;5027097;28;20033;-66
2022/10/23 10:44:16;;;;;;;2.13;1.40;;;;;;;18.51;90.36;100717.16;5027437;28;20033;-66
2022/10/23 10:47:13;;;;;;;2.03;1.10;;;;;;;18.67;90.00;100722.03;5025161;28;20041;-65
2022/10/23 10:49:54;;;;;;;2.22;1.08;;;;;;;18.72;89.08;100710.66;5018961;28;20363;-66
2022/10/23 10:53:00;;;;;;;3.55;0.98;;;;;;;18.59;89.33;100712.38;5009129;28;20061;-65
2022/10/23 10:55:29;;;;;;;1.83;1.00;;;;;;;18.61;88.94;100701.84;5018243;28;20045;-65
2022/10/23 10:58:00;;;;;;;2.42;1.10;;;;;;;18.60;89.59;100697.56;5024706;28;20486;-65
2022/10/23 11:00:28;;;;;;;1.20;0.70;;;;;;;18.67;89.11;100709.19;5028199;28;20052;-64
2022/10/23 11:03:01;;;;;;;1.75;0.70;;;;;;;18.83;88.73;100712.06;5026998;28;20029;-65
2022/10/23 11:05:33;;;;;;;1.38;1.08;;;;;;;18.99;87.43;100716.19;5025556;28;20041;-65
2022/10/23 11:08:13;;;;;;;2.22;0.80;;;;;;;18.95;86.96;100701.81;5026267;28;20379;-66
2022/10/23 11:10:44;;;;;;;1.15;0.75;;;;;;;19.03;86.63;100695.09;5018575;28;20038;-65
2022/10/23 11:13:42;;;;;;;1.10;1.00;;;;;;;19.12;86.37;100679.75;5026418;28;20040;-65
2022/10/23 11:16:10;;;;;;;3.72;0.70;;;;;;;19.21;85.93;100674.53;4980106;28;20049;-65
2022/10/23 11:18:39;;;;;;;0.75;0.60;;;;;;;19.29;85.71;100667.00;5012600;28;20055;-65
2022/10/23 11:21:22;;;;;;;1.20;0.80;;;;;;;19.32;86.02;100668.88;5027784;28;20045;-66
2022/10/23 11:24:26;;;;;;;2.20;0.60;;;;;;;19.36;86.09;100667.69;5027044;28;20040;-65
2022/10/23 11:26:54;;;;;;;1.02;0.60;;;;;;;19.40;86.28;100662.16;4987013;28;20053;-66
2022/10/23 11:29:34;;;;;;;0.90;0.68;;;;;;;19.42;86.57;100644.19;5017640;28;20079;-66
2022/10/23 11:32:13;;;;;;;1.67;1.00;;;;;;;19.41;86.66;100637.19;5023296;28;20073;-66
2022/10/23 11:35:08;;;;;;;2.60;0.80;;;;;;;19.44;86.50;100636.34;5020336;28;20042;-66
2022/10/23 11:37:33;;;;;;;1.05;0.88;;;;;;;19.56;86.69;100643.97;5027162;28;20029;-66
2022/10/23 11:40:12;;;;;;;1.95;0.70;;;;;;;19.64;86.68;100648.13;5026437;28;20474;-66
2022/10/23 11:42:38;;;;;;;1.02;0.80;;;;;;;19.76;86.53;100639.31;5026099;28;20061;-66
2022/10/23 11:45:24;;;;;;;1.27;0.65;;;;;;;19.75;87.00;100640.50;5028260;28;20068;-66
2022/10/23 11:48:20;;;;;;;1.83;0.63;;;;;;;19.86;86.71;100642.28;5026610;28;20124;-66